Sunday, January 21, 2018, 3:43 PM EST
Back to Local

KAKR, Akron Fulton International

Location: Akron, OH, United States Lat: 41.033
Local Time: 3:43 PM EST (20:43 GMT) Lon: -81.467
Time Zone: US/Eastern Elev: 1069 ft

Show me the last for .
Show Decoded

2018-01-21 14:54 METAR KAKR 211954Z AUTO 21010KT 10SM OVC014 08/05 A3002 RMK AO2 SLP171 T00830050
                 $ =
2018-01-21 14:50 METAR KAKR 211950Z AUTO 20010KT 10SM OVC014 08/05 A3002 RMK AO2 $ =
2018-01-21 13:54 METAR KAKR 211854Z AUTO 20007KT 10SM OVC018 08/05 A3002 RMK AO2 SLP172 T00830050
                 $ =
2018-01-21 12:54 METAR KAKR 211754Z AUTO 20007KT 9SM OVC019 07/06 A3004 RMK AO2 SLP179 T00670056
                 10067 20039 58019 $ =
2018-01-21 12:26 METAR KAKR 211726Z AUTO 19006KT 6SM BR SCT008 OVC018 07/06 A3006 RMK AO2
                 T00670056 $ =
2018-01-21 12:15 METAR KAKR 211715Z AUTO 19006KT 5SM BR SCT006 BKN010 OVC016 06/05 A3006 RMK AO2
                 T00610050 $ =
2018-01-21 12:08 METAR KAKR 211708Z AUTO 20007KT 4SM BR BKN006 BKN010 OVC016 06/05 A3007 RMK AO2
                 CIG 003V009 T00610050 $ =
2018-01-21 11:54 METAR KAKR 211654Z AUTO 19007KT 4SM BR BKN003 OVC010 06/05 A3008 RMK AO2 SLP191
                 T00610050 $ =
2018-01-21 11:50 METAR KAKR 211650Z AUTO 19006KT 4SM BR BKN003 OVC010 06/05 A3008 RMK AO2 $ =
2018-01-21 11:32 METAR KAKR 211632Z AUTO 19005KT 2SM BR OVC003 06/05 A3009 RMK AO2 T00560050 $ =
2018-01-21 11:16 METAR KAKR 211616Z AUTO 19006KT 2 1/2SM BR OVC002 06/04 A3009 RMK AO2 T00560044
                 $ =
2018-01-21 11:07 METAR KAKR 211607Z AUTO 19006KT 1 3/4SM BR OVC002 06/04 A3010 RMK AO2 T00560044
                 $ =
2018-01-21 10:54 METAR KAKR 211554Z AUTO 19005KT 1/2SM FG OVC002 05/04 A3010 RMK AO2 SLP199
                 T00500044 $ =
2018-01-21 10:42 METAR KAKR 211542Z AUTO 19005KT 1/2SM FG OVC002 05/04 A3010 RMK AO2 T00500044 $
                 =
2018-01-21 10:09 METAR KAKR 211509Z AUTO 21005KT 1/4SM FG OVC002 05/04 A3011 RMK AO2 T00500044 $
                 =
2018-01-21 09:54 METAR KAKR 211454Z AUTO 21004KT 3/4SM BR OVC002 05/04 A3011 RMK AO2 SLP201
                 T00500044 53005 $ =
2018-01-21 09:47 METAR KAKR 211447Z AUTO 22005KT 3/4SM BR OVC002 05/04 A3010 RMK AO2 T00500044 $
                 =
2018-01-21 08:54 METAR KAKR 211354Z AUTO 20006KT 1SM BR OVC002 04/04 A3009 RMK AO2 SLP197
                 T00440039 $ =
2018-01-21 08:25 METAR KAKR 211325Z AUTO 20006KT 1/2SM FG OVC002 04/04 A3009 RMK AO2 T00440039 $
                 =
2018-01-21 08:14 METAR KAKR 211314Z AUTO 22003KT 1/2SM FG OVC003 04/04 A3009 RMK AO2 T00440039 $
                 =
2018-01-21 07:54 METAR KAKR 211254Z AUTO 20007KT 1 3/4SM BR OVC003 04/04 A3009 RMK AO2 SLP197
                 T00440039 $ =
2018-01-21 06:54 METAR KAKR 211154Z AUTO 19004KT 2SM BR OVC004 04/03 A3009 RMK AO2 RAB33E42
                 SLP195 P0000 60000 T00440033 10050 20039 53002 $ =
2018-01-21 06:32 METAR KAKR 211132Z AUTO 18004KT 2SM BR BKN005 OVC010 04/03 A3009 RMK AO2
                 T00390033 $ =
2018-01-21 06:20 METAR KAKR 211120Z AUTO 19004KT 2SM BR BKN003 OVC011 04/03 A3008 RMK AO2
                 T00390033 $ =
2018-01-21 05:54 METAR KAKR 211054Z AUTO 19004KT 1 1/2SM BR BKN004 OVC013 04/03 A3009 RMK AO2
                 SLP194 T00390033 $ =
2018-01-21 05:39 METAR KAKR 211039Z AUTO 19004KT 1 3/4SM BR BKN004 OVC010 04/03 A3009 RMK AO2
                 T00390028 $ =
2018-01-21 05:34 METAR KAKR 211034Z AUTO 19004KT 2SM BR BKN005 OVC010 04/03 A3009 RMK AO2
                 T00390028 $ =
2018-01-21 05:19 METAR KAKR 211019Z AUTO 20005KT 2 1/2SM BR SCT007 OVC010 04/03 A3009 RMK AO2
                 T00390028 $ =
2018-01-21 04:54 METAR KAKR 210954Z AUTO 20007KT 6SM BR OVC010 04/02 A3009 RMK AO2 CIG 008V011
                 SLP193 T00440022 $ =
2018-01-21 04:03 METAR KAKR 210903Z AUTO 19005KT 10SM OVC014 04/01 A3008 RMK AO2 T00440011 $ =
2018-01-21 03:54 METAR KAKR 210854Z AUTO 20004KT 10SM OVC015 04/01 A3009 RMK AO2 SLP193 T00440011
                 50005 $ =
2018-01-21 02:54 METAR KAKR 210754Z AUTO 23004KT 10SM OVC021 04/00 A3009 RMK AO2 SLP196 T00440000
                 $ =
2018-01-21 01:54 METAR KAKR 210654Z AUTO 20005KT 10SM OVC022 04/00 A3008 RMK AO2 SLP191 T00390000
                 $ =
2018-01-21 00:54 METAR KAKR 210554Z AUTO 19004KT 10SM OVC027 04/00 A3007 RMK AO2 SLP188 T00440000
                 10044 20022 58001 $ =
2018-01-20 23:54 METAR KAKR 210454Z AUTO 19006KT 10SM OVC023 04/M01 A3008 RMK AO2 SLP193
                 T00441006 400670011 $ =
2018-01-20 22:54 METAR KAKR 210354Z AUTO 21006KT 10SM OVC020 04/M01 A3008 RMK AO2 SLP194
                 T00391006 $ =
2018-01-20 21:54 METAR KAKR 210254Z AUTO 23005KT 10SM OVC018 04/M01 A3007 RMK AO2 SLP190
                 T00391011 53005 $ =
2018-01-20 21:14 METAR KAKR 210214Z AUTO 22005KT 10SM BKN019 04/M02 A3007 RMK AO2 T00391017 $ =
2018-01-20 20:54 METAR KAKR 210154Z AUTO 22005KT 10SM CLR 02/M03 A3007 RMK AO2 SLP189 T00221028 $
                 =
2018-01-20 19:54 METAR KAKR 210054Z AUTO 21006KT 10SM CLR 03/M02 A3006 RMK AO2 SLP186 T00281022 $
                 =
2018-01-20 18:54 METAR KAKR 202354Z AUTO 22007KT 10SM CLR 04/M02 A3006 RMK AO2 SLP184 T00441022
                 10067 20033 53018 $ =
2018-01-20 17:54 METAR KAKR 202254Z AUTO 23009KT 10SM CLR 06/M02 A3003 RMK AO2 SLP177 T00561022 $
                 =
2018-01-20 16:54 METAR KAKR 202154Z AUTO 23009KT 10SM CLR 06/M02 A3002 RMK AO2 SLP173 T00611022 $
                 =
2018-01-20 15:54 METAR KAKR 202054Z AUTO 22013KT 10SM CLR 06/M02 A3000 RMK AO2 SLP164 T00611022
                 53002 $ =

Support USWX by starting your Amazon purchase here.